KHEZ/HEZ METAR and TAF weather

Enter ICAO airport designator
Station Type Date Time Source
KHEZ METAR 2022/01/25 04:37 UTC NOAA

KHEZ 250437Z AUTO 12004KT 10SM -RA SCT007 SCT012 OVC021 07/07 A2997 RMK AO2 P0001


Station Type Date Time Source
KHEZ Decoded METAR 2022/01/25 04:37 UTC NOAA

Natchez, Hardy-Anders Field Natchez-Adams County Airport, MS, United States (KHEZ) 31-37N 091-18W
Jan 24, 2022 - 11:37 PM EST / 2022.01.25 0437 UTC
Wind: from the ESE (120 degrees) at 5 MPH (4 KT):0
Visibility: 10 mile(s):0
Sky conditions: overcast
Weather: light rain
Precipitation last hour: 0.01 inches
Temperature: 44 F (7 C)
Dew Point: 44 F (7 C)
Relative Humidity: 100%
Pressure (altimeter): 29.97 in. Hg (1014 hPa)
ob: KHEZ 250437Z AUTO 12004KT 10SM -RA SCT007 SCT012 OVC021 07/07 A2997 RMK AO2 P0001
cycle: 4

Station Type Date Time Source
KHEZ TAF UTC NOAA

Error!

Example: see airport list